sensor_id;sensor_type;location;lat;lon;timestamp;P1;durP1;ratioP1;P2;durP2;ratioP2
16624;SDS011;8426;48.496;9.098;2022-08-19T00:00:14;25.02;;;16.42;;
16624;SDS011;8426;48.496;9.098;2022-08-19T00:05:23;26.60;;;18.08;;
16624;SDS011;8426;48.496;9.098;2022-08-19T00:10:27;21.80;;;14.90;;
16624;SDS011;8426;48.496;9.098;2022-08-19T00:15:31;26.40;;;17.48;;
16624;SDS011;8426;48.496;9.098;2022-08-19T00:20:35;25.35;;;17.20;;
16624;SDS011;8426;48.496;9.098;2022-08-19T00:25:39;24.95;;;15.90;;
16624;SDS011;8426;48.496;9.098;2022-08-19T00:30:48;30.92;;;18.98;;
16624;SDS011;8426;48.496;9.098;2022-08-19T00:35:54;26.33;;;17.10;;
16624;SDS011;8426;48.496;9.098;2022-08-19T00:40:58;26.50;;;17.00;;
16624;SDS011;8426;48.496;9.098;2022-08-19T00:46:01;27.10;;;16.52;;
16624;SDS011;8426;48.496;9.098;2022-08-19T00:51:07;26.05;;;18.08;;
16624;SDS011;8426;48.496;9.098;2022-08-19T00:56:12;24.92;;;16.35;;
16624;SDS011;8426;48.496;9.098;2022-08-19T01:01:17;30.55;;;20.25;;
16624;SDS011;8426;48.496;9.098;2022-08-19T01:06:22;40.80;;;19.38;;
16624;SDS011;8426;48.496;9.098;2022-08-19T01:11:30;28.02;;;18.38;;
16624;SDS011;8426;48.496;9.098;2022-08-19T01:16:35;31.73;;;17.60;;
16624;SDS011;8426;48.496;9.098;2022-08-19T01:21:43;27.95;;;17.02;;
16624;SDS011;8426;48.496;9.098;2022-08-19T01:26:56;25.55;;;16.00;;
16624;SDS011;8426;48.496;9.098;2022-08-19T01:32:00;22.00;;;14.07;;
16624;SDS011;8426;48.496;9.098;2022-08-19T01:37:05;32.88;;;16.70;;
16624;SDS011;8426;48.496;9.098;2022-08-19T01:42:13;24.85;;;15.57;;
16624;SDS011;8426;48.496;9.098;2022-08-19T01:47:16;29.08;;;16.02;;
16624;SDS011;8426;48.496;9.098;2022-08-19T01:52:20;26.70;;;14.98;;
16624;SDS011;8426;48.496;9.098;2022-08-19T01:57:25;26.88;;;14.77;;
16624;SDS011;8426;48.496;9.098;2022-08-19T02:02:28;23.15;;;14.93;;
16624;SDS011;8426;48.496;9.098;2022-08-19T02:07:31;26.88;;;16.05;;
16624;SDS011;8426;48.496;9.098;2022-08-19T02:12:39;30.42;;;15.38;;
16624;SDS011;8426;48.496;9.098;2022-08-19T02:17:42;24.08;;;15.60;;
16624;SDS011;8426;48.496;9.098;2022-08-19T02:22:46;26.60;;;15.15;;
16624;SDS011;8426;48.496;9.098;2022-08-19T02:27:50;32.10;;;16.45;;
16624;SDS011;8426;48.496;9.098;2022-08-19T02:32:55;27.90;;;14.60;;
16624;SDS011;8426;48.496;9.098;2022-08-19T02:37:59;29.60;;;14.82;;
16624;SDS011;8426;48.496;9.098;2022-08-19T02:43:21;27.48;;;14.90;;
16624;SDS011;8426;48.496;9.098;2022-08-19T02:48:28;25.38;;;14.27;;
16624;SDS011;8426;48.496;9.098;2022-08-19T02:53:34;28.25;;;15.80;;
16624;SDS011;8426;48.496;9.098;2022-08-19T02:58:40;27.67;;;14.43;;
16624;SDS011;8426;48.496;9.098;2022-08-19T03:03:44;29.15;;;16.85;;
16624;SDS011;8426;48.496;9.098;2022-08-19T03:08:48;32.50;;;15.85;;
16624;SDS011;8426;48.496;9.098;2022-08-19T03:13:53;31.80;;;15.88;;
16624;SDS011;8426;48.496;9.098;2022-08-19T03:18:56;31.60;;;16.40;;
16624;SDS011;8426;48.496;9.098;2022-08-19T03:24:05;26.45;;;14.52;;
16624;SDS011;8426;48.496;9.098;2022-08-19T03:29:11;32.28;;;16.52;;
16624;SDS011;8426;48.496;9.098;2022-08-19T03:34:27;28.02;;;14.63;;
16624;SDS011;8426;48.496;9.098;2022-08-19T03:39:32;35.45;;;17.50;;
16624;SDS011;8426;48.496;9.098;2022-08-19T03:44:37;30.00;;;15.65;;
16624;SDS011;8426;48.496;9.098;2022-08-19T03:49:41;28.20;;;15.00;;
16624;SDS011;8426;48.496;9.098;2022-08-19T03:54:44;28.25;;;15.48;;
16624;SDS011;8426;48.496;9.098;2022-08-19T03:59:49;40.33;;;17.60;;
16624;SDS011;8426;48.496;9.098;2022-08-19T04:04:53;29.55;;;15.50;;
16624;SDS011;8426;48.496;9.098;2022-08-19T04:09:56;33.58;;;17.25;;
16624;SDS011;8426;48.496;9.098;2022-08-19T04:15:02;39.28;;;18.83;;
16624;SDS011;8426;48.496;9.098;2022-08-19T04:20:07;28.20;;;16.17;;
16624;SDS011;8426;48.496;9.098;2022-08-19T04:25:11;29.08;;;16.10;;
16624;SDS011;8426;48.496;9.098;2022-08-19T04:30:16;26.85;;;14.85;;
16624;SDS011;8426;48.496;9.098;2022-08-19T04:35:20;34.55;;;18.10;;
16624;SDS011;8426;48.496;9.098;2022-08-19T04:40:25;31.20;;;17.05;;
16624;SDS011;8426;48.496;9.098;2022-08-19T04:45:50;33.03;;;17.70;;
16624;SDS011;8426;48.496;9.098;2022-08-19T04:51:05;30.75;;;17.65;;
16624;SDS011;8426;48.496;9.098;2022-08-19T04:56:10;34.78;;;17.65;;
16624;SDS011;8426;48.496;9.098;2022-08-19T05:01:17;34.58;;;17.95;;
16624;SDS011;8426;48.496;9.098;2022-08-19T05:06:22;31.55;;;17.73;;
16624;SDS011;8426;48.496;9.098;2022-08-19T05:11:27;35.33;;;17.90;;
16624;SDS011;8426;48.496;9.098;2022-08-19T05:16:33;34.33;;;18.05;;
16624;SDS011;8426;48.496;9.098;2022-08-19T05:21:37;32.45;;;16.63;;
16624;SDS011;8426;48.496;9.098;2022-08-19T05:26:58;31.88;;;17.02;;
16624;SDS011;8426;48.496;9.098;2022-08-19T05:32:05;35.28;;;19.25;;
16624;SDS011;8426;48.496;9.098;2022-08-19T05:37:10;32.97;;;18.05;;
16624;SDS011;8426;48.496;9.098;2022-08-19T05:42:13;37.67;;;18.38;;
16624;SDS011;8426;48.496;9.098;2022-08-19T05:47:18;36.67;;;19.67;;
16624;SDS011;8426;48.496;9.098;2022-08-19T05:52:22;33.15;;;18.48;;
16624;SDS011;8426;48.496;9.098;2022-08-19T05:57:26;33.65;;;19.00;;
16624;SDS011;8426;48.496;9.098;2022-08-19T06:02:31;39.60;;;20.20;;
16624;SDS011;8426;48.496;9.098;2022-08-19T06:07:36;36.00;;;19.13;;
16624;SDS011;8426;48.496;9.098;2022-08-19T06:12:41;31.83;;;18.10;;
16624;SDS011;8426;48.496;9.098;2022-08-19T06:17:45;28.98;;;15.90;;
16624;SDS011;8426;48.496;9.098;2022-08-19T06:22:49;29.17;;;16.35;;
16624;SDS011;8426;48.496;9.098;2022-08-19T06:27:52;26.98;;;16.05;;
16624;SDS011;8426;48.496;9.098;2022-08-19T06:33:16;31.90;;;17.67;;
16624;SDS011;8426;48.496;9.098;2022-08-19T06:38:20;38.40;;;18.40;;
16624;SDS011;8426;48.496;9.098;2022-08-19T06:43:24;31.23;;;17.33;;
16624;SDS011;8426;48.496;9.098;2022-08-19T06:48:30;35.53;;;19.17;;
16624;SDS011;8426;48.496;9.098;2022-08-19T06:53:45;30.70;;;18.65;;
16624;SDS011;8426;48.496;9.098;2022-08-19T06:58:49;33.92;;;18.38;;
16624;SDS011;8426;48.496;9.098;2022-08-19T07:03:54;30.92;;;17.73;;
16624;SDS011;8426;48.496;9.098;2022-08-19T07:08:58;29.88;;;17.25;;
16624;SDS011;8426;48.496;9.098;2022-08-19T07:14:02;26.10;;;16.40;;
16624;SDS011;8426;48.496;9.098;2022-08-19T07:19:21;32.00;;;18.75;;
16624;SDS011;8426;48.496;9.098;2022-08-19T07:24:25;27.73;;;15.55;;
16624;SDS011;8426;48.496;9.098;2022-08-19T07:29:34;29.73;;;15.77;;
16624;SDS011;8426;48.496;9.098;2022-08-19T07:34:40;32.65;;;16.65;;
16624;SDS011;8426;48.496;9.098;2022-08-19T07:39:43;28.95;;;17.75;;
16624;SDS011;8426;48.496;9.098;2022-08-19T07:44:46;32.50;;;18.65;;
16624;SDS011;8426;48.496;9.098;2022-08-19T07:49:52;28.38;;;17.42;;
16624;SDS011;8426;48.496;9.098;2022-08-19T07:54:56;31.73;;;18.45;;
16624;SDS011;8426;48.496;9.098;2022-08-19T08:00:02;32.88;;;18.25;;
16624;SDS011;8426;48.496;9.098;2022-08-19T08:05:08;40.72;;;21.15;;
16624;SDS011;8426;48.496;9.098;2022-08-19T08:10:29;39.70;;;20.65;;
16624;SDS011;8426;48.496;9.098;2022-08-19T08:15:34;32.25;;;18.13;;
16624;SDS011;8426;48.496;9.098;2022-08-19T08:20:45;39.42;;;20.67;;
16624;SDS011;8426;48.496;9.098;2022-08-19T08:25:48;33.88;;;18.13;;
16624;SDS011;8426;48.496;9.098;2022-08-19T08:30:51;33.53;;;20.17;;
16624;SDS011;8426;48.496;9.098;2022-08-19T08:35:57;36.97;;;18.85;;
16624;SDS011;8426;48.496;9.098;2022-08-19T08:41:02;29.25;;;16.15;;
16624;SDS011;8426;48.496;9.098;2022-08-19T08:46:22;27.92;;;15.60;;
16624;SDS011;8426;48.496;9.098;2022-08-19T08:51:35;27.55;;;16.48;;
16624;SDS011;8426;48.496;9.098;2022-08-19T08:56:43;30.95;;;17.27;;
16624;SDS011;8426;48.496;9.098;2022-08-19T09:01:51;34.15;;;19.63;;
16624;SDS011;8426;48.496;9.098;2022-08-19T09:06:58;29.02;;;16.40;;
16624;SDS011;8426;48.496;9.098;2022-08-19T09:12:34;25.67;;;15.40;;
16624;SDS011;8426;48.496;9.098;2022-08-19T09:17:47;29.35;;;15.40;;
16624;SDS011;8426;48.496;9.098;2022-08-19T09:22:52;26.10;;;16.25;;
16624;SDS011;8426;48.496;9.098;2022-08-19T09:27:55;25.02;;;15.68;;
16624;SDS011;8426;48.496;9.098;2022-08-19T09:33:03;27.25;;;16.58;;
16624;SDS011;8426;48.496;9.098;2022-08-19T09:38:08;24.45;;;14.27;;
16624;SDS011;8426;48.496;9.098;2022-08-19T09:43:12;25.05;;;15.68;;
16624;SDS011;8426;48.496;9.098;2022-08-19T09:48:33;20.80;;;14.07;;
16624;SDS011;8426;48.496;9.098;2022-08-19T09:53:38;22.33;;;14.35;;
16624;SDS011;8426;48.496;9.098;2022-08-19T09:58:41;28.33;;;17.75;;
16624;SDS011;8426;48.496;9.098;2022-08-19T10:03:46;27.13;;;15.70;;
16624;SDS011;8426;48.496;9.098;2022-08-19T10:08:53;27.73;;;15.73;;
16624;SDS011;8426;48.496;9.098;2022-08-19T10:13:57;27.35;;;16.50;;
16624;SDS011;8426;48.496;9.098;2022-08-19T10:19:01;20.92;;;13.57;;
16624;SDS011;8426;48.496;9.098;2022-08-19T10:24:07;35.88;;;18.90;;
16624;SDS011;8426;48.496;9.098;2022-08-19T10:29:10;29.15;;;16.90;;
16624;SDS011;8426;48.496;9.098;2022-08-19T10:34:33;26.70;;;16.40;;
16624;SDS011;8426;48.496;9.098;2022-08-19T10:39:50;22.35;;;14.25;;
16624;SDS011;8426;48.496;9.098;2022-08-19T10:44:53;26.42;;;15.65;;
16624;SDS011;8426;48.496;9.098;2022-08-19T10:49:58;29.25;;;17.55;;
16624;SDS011;8426;48.496;9.098;2022-08-19T10:55:21;29.05;;;17.38;;
16624;SDS011;8426;48.496;9.098;2022-08-19T11:00:43;24.58;;;16.27;;
16624;SDS011;8426;48.496;9.098;2022-08-19T11:05:58;27.58;;;17.02;;
16624;SDS011;8426;48.496;9.098;2022-08-19T11:11:03;27.23;;;15.27;;
16624;SDS011;8426;48.496;9.098;2022-08-19T11:16:10;28.45;;;18.20;;
16624;SDS011;8426;48.496;9.098;2022-08-19T11:21:16;34.33;;;19.52;;
16624;SDS011;8426;48.496;9.098;2022-08-19T11:26:23;32.00;;;18.67;;
16624;SDS011;8426;48.496;9.098;2022-08-19T11:31:28;32.03;;;20.02;;
16624;SDS011;8426;48.496;9.098;2022-08-19T11:36:33;31.80;;;19.85;;
16624;SDS011;8426;48.496;9.098;2022-08-19T11:41:38;33.60;;;19.73;;
16624;SDS011;8426;48.496;9.098;2022-08-19T11:46:43;33.42;;;20.00;;
16624;SDS011;8426;48.496;9.098;2022-08-19T11:51:47;30.98;;;18.58;;
16624;SDS011;8426;48.496;9.098;2022-08-19T11:56:53;31.60;;;19.02;;
16624;SDS011;8426;48.496;9.098;2022-08-19T12:01:57;32.65;;;18.92;;
16624;SDS011;8426;48.496;9.098;2022-08-19T12:07:00;31.67;;;18.42;;
16624;SDS011;8426;48.496;9.098;2022-08-19T12:12:06;34.58;;;18.52;;
16624;SDS011;8426;48.496;9.098;2022-08-19T12:17:10;30.20;;;18.88;;
16624;SDS011;8426;48.496;9.098;2022-08-19T12:22:14;32.10;;;18.70;;
16624;SDS011;8426;48.496;9.098;2022-08-19T12:27:19;29.55;;;17.58;;
16624;SDS011;8426;48.496;9.098;2022-08-19T12:32:40;31.85;;;18.67;;
16624;SDS011;8426;48.496;9.098;2022-08-19T12:37:44;28.65;;;17.83;;
16624;SDS011;8426;48.496;9.098;2022-08-19T12:42:59;27.75;;;17.88;;
16624;SDS011;8426;48.496;9.098;2022-08-19T12:48:02;28.27;;;17.67;;
16624;SDS011;8426;48.496;9.098;2022-08-19T12:53:26;26.35;;;16.70;;
16624;SDS011;8426;48.496;9.098;2022-08-19T12:58:31;28.90;;;17.00;;
16624;SDS011;8426;48.496;9.098;2022-08-19T13:03:36;26.05;;;15.57;;
16624;SDS011;8426;48.496;9.098;2022-08-19T13:08:41;24.23;;;15.88;;
16624;SDS011;8426;48.496;9.098;2022-08-19T13:13:50;24.27;;;15.10;;
16624;SDS011;8426;48.496;9.098;2022-08-19T13:18:57;27.73;;;16.38;;
16624;SDS011;8426;48.496;9.098;2022-08-19T13:24:00;27.00;;;15.63;;
16624;SDS011;8426;48.496;9.098;2022-08-19T13:35:31;27.67;;;16.05;;
16624;SDS011;8426;48.496;9.098;2022-08-19T13:41:06;23.02;;;15.48;;
16624;SDS011;8426;48.496;9.098;2022-08-19T13:47:04;25.02;;;15.48;;
16624;SDS011;8426;48.496;9.098;2022-08-19T13:52:09;25.42;;;16.05;;
16624;SDS011;8426;48.496;9.098;2022-08-19T14:47:53;23.35;;;14.88;;
16624;SDS011;8426;48.496;9.098;2022-08-19T14:52:57;26.25;;;16.10;;
16624;SDS011;8426;48.496;9.098;2022-08-19T14:58:08;29.42;;;16.67;;
16624;SDS011;8426;48.496;9.098;2022-08-19T15:03:31;24.27;;;15.25;;
16624;SDS011;8426;48.496;9.098;2022-08-19T15:08:36;23.55;;;14.23;;
16624;SDS011;8426;48.496;9.098;2022-08-19T15:13:41;20.23;;;12.48;;
16624;SDS011;8426;48.496;9.098;2022-08-19T15:18:48;18.90;;;12.43;;
16624;SDS011;8426;48.496;9.098;2022-08-19T15:23:56;19.00;;;11.93;;
16624;SDS011;8426;48.496;9.098;2022-08-19T15:29:00;21.52;;;14.52;;
16624;SDS011;8426;48.496;9.098;2022-08-19T15:34:06;15.00;;;10.80;;
16624;SDS011;8426;48.496;9.098;2022-08-19T15:39:09;17.67;;;12.15;;
16624;SDS011;8426;48.496;9.098;2022-08-19T15:44:13;17.52;;;13.32;;
16624;SDS011;8426;48.496;9.098;2022-08-19T15:49:20;20.88;;;13.35;;
16624;SDS011;8426;48.496;9.098;2022-08-19T15:54:23;19.45;;;13.02;;
16624;SDS011;8426;48.496;9.098;2022-08-19T15:59:27;17.27;;;12.75;;
16624;SDS011;8426;48.496;9.098;2022-08-19T16:04:51;20.50;;;13.65;;
16624;SDS011;8426;48.496;9.098;2022-08-19T16:10:13;24.83;;;14.07;;
16624;SDS011;8426;48.496;9.098;2022-08-19T16:15:29;21.63;;;15.10;;
16624;SDS011;8426;48.496;9.098;2022-08-19T16:20:38;23.50;;;14.70;;
16624;SDS011;8426;48.496;9.098;2022-08-19T16:25:41;22.73;;;14.18;;
16624;SDS011;8426;48.496;9.098;2022-08-19T16:30:44;21.77;;;15.88;;
16624;SDS011;8426;48.496;9.098;2022-08-19T16:35:52;22.85;;;15.52;;
16624;SDS011;8426;48.496;9.098;2022-08-19T16:41:00;27.35;;;16.05;;
16624;SDS011;8426;48.496;9.098;2022-08-19T16:46:04;17.98;;;13.88;;
16624;SDS011;8426;48.496;9.098;2022-08-19T16:51:09;23.35;;;14.77;;
16624;SDS011;8426;48.496;9.098;2022-08-19T16:56:13;20.20;;;14.32;;
16624;SDS011;8426;48.496;9.098;2022-08-19T17:01:16;22.55;;;13.80;;
16624;SDS011;8426;48.496;9.098;2022-08-19T17:06:23;21.15;;;13.00;;
16624;SDS011;8426;48.496;9.098;2022-08-19T17:11:29;19.70;;;13.85;;
16624;SDS011;8426;48.496;9.098;2022-08-19T17:16:34;20.08;;;14.27;;
16624;SDS011;8426;48.496;9.098;2022-08-19T17:21:39;22.52;;;15.68;;
16624;SDS011;8426;48.496;9.098;2022-08-19T17:26:43;20.60;;;15.27;;
16624;SDS011;8426;48.496;9.098;2022-08-19T17:31:47;21.58;;;15.52;;
16624;SDS011;8426;48.496;9.098;2022-08-19T17:36:52;20.63;;;14.77;;
16624;SDS011;8426;48.496;9.098;2022-08-19T17:41:57;23.98;;;14.73;;
16624;SDS011;8426;48.496;9.098;2022-08-19T17:47:03;20.42;;;14.45;;
16624;SDS011;8426;48.496;9.098;2022-08-19T17:52:08;15.10;;;11.63;;
16624;SDS011;8426;48.496;9.098;2022-08-19T17:57:12;17.52;;;12.38;;
16624;SDS011;8426;48.496;9.098;2022-08-19T18:02:15;16.92;;;11.00;;
16624;SDS011;8426;48.496;9.098;2022-08-19T18:07:23;13.85;;;9.82;;
16624;SDS011;8426;48.496;9.098;2022-08-19T18:12:27;16.02;;;10.15;;
16624;SDS011;8426;48.496;9.098;2022-08-19T18:17:36;18.30;;;10.13;;
16624;SDS011;8426;48.496;9.098;2022-08-19T18:22:42;14.90;;;10.55;;
16624;SDS011;8426;48.496;9.098;2022-08-19T18:27:47;16.50;;;11.32;;
16624;SDS011;8426;48.496;9.098;2022-08-19T18:32:51;18.52;;;12.40;;
16624;SDS011;8426;48.496;9.098;2022-08-19T18:37:57;17.02;;;10.88;;
16624;SDS011;8426;48.496;9.098;2022-08-19T18:43:22;15.80;;;10.35;;
16624;SDS011;8426;48.496;9.098;2022-08-19T18:48:42;15.82;;;10.35;;
16624;SDS011;8426;48.496;9.098;2022-08-19T18:54:04;12.98;;;9.95;;
16624;SDS011;8426;48.496;9.098;2022-08-19T18:59:08;13.35;;;9.63;;
16624;SDS011;8426;48.496;9.098;2022-08-19T19:04:12;13.82;;;10.00;;
16624;SDS011;8426;48.496;9.098;2022-08-19T19:09:18;14.63;;;9.48;;
16624;SDS011;8426;48.496;9.098;2022-08-19T19:14:24;15.00;;;10.20;;
16624;SDS011;8426;48.496;9.098;2022-08-19T19:19:48;14.00;;;9.75;;
16624;SDS011;8426;48.496;9.098;2022-08-19T19:24:56;16.75;;;10.48;;
16624;SDS011;8426;48.496;9.098;2022-08-19T19:30:00;15.95;;;9.88;;
16624;SDS011;8426;48.496;9.098;2022-08-19T19:35:04;15.10;;;10.30;;
16624;SDS011;8426;48.496;9.098;2022-08-19T19:40:13;15.60;;;9.90;;
16624;SDS011;8426;48.496;9.098;2022-08-19T19:45:17;16.45;;;9.98;;
16624;SDS011;8426;48.496;9.098;2022-08-19T19:50:22;10.60;;;7.97;;
16624;SDS011;8426;48.496;9.098;2022-08-19T19:55:27;11.48;;;8.20;;
16624;SDS011;8426;48.496;9.098;2022-08-19T20:00:31;11.13;;;8.30;;
16624;SDS011;8426;48.496;9.098;2022-08-19T20:05:34;11.00;;;8.68;;
16624;SDS011;8426;48.496;9.098;2022-08-19T20:10:43;15.00;;;10.73;;
16624;SDS011;8426;48.496;9.098;2022-08-19T20:15:47;13.60;;;9.77;;
16624;SDS011;8426;48.496;9.098;2022-08-19T20:20:53;14.32;;;10.07;;
16624;SDS011;8426;48.496;9.098;2022-08-19T20:25:58;17.92;;;11.50;;
16624;SDS011;8426;48.496;9.098;2022-08-19T20:31:01;16.45;;;11.32;;
16624;SDS011;8426;48.496;9.098;2022-08-19T20:36:05;14.82;;;11.57;;
16624;SDS011;8426;48.496;9.098;2022-08-19T20:41:10;20.27;;;12.60;;
16624;SDS011;8426;48.496;9.098;2022-08-19T20:46:14;14.05;;;11.00;;
16624;SDS011;8426;48.496;9.098;2022-08-19T20:51:17;16.33;;;11.20;;
16624;SDS011;8426;48.496;9.098;2022-08-19T20:56:22;18.10;;;11.43;;
16624;SDS011;8426;48.496;9.098;2022-08-19T21:01:26;20.38;;;11.05;;
16624;SDS011;8426;48.496;9.098;2022-08-19T21:06:29;12.45;;;9.63;;
16624;SDS011;8426;48.496;9.098;2022-08-19T21:11:33;14.88;;;10.40;;
16624;SDS011;8426;48.496;9.098;2022-08-19T21:16:38;14.65;;;10.13;;
16624;SDS011;8426;48.496;9.098;2022-08-19T21:21:41;14.25;;;10.20;;
16624;SDS011;8426;48.496;9.098;2022-08-19T21:26:46;13.75;;;10.75;;
16624;SDS011;8426;48.496;9.098;2022-08-19T21:31:51;14.13;;;10.23;;
16624;SDS011;8426;48.496;9.098;2022-08-19T21:36:55;18.08;;;9.38;;
16624;SDS011;8426;48.496;9.098;2022-08-19T21:41:59;12.55;;;8.68;;
16624;SDS011;8426;48.496;9.098;2022-08-19T21:47:03;11.70;;;7.65;;
16624;SDS011;8426;48.496;9.098;2022-08-19T21:52:10;9.45;;;6.82;;
16624;SDS011;8426;48.496;9.098;2022-08-19T21:57:15;11.25;;;6.95;;
16624;SDS011;8426;48.496;9.098;2022-08-19T22:02:19;10.85;;;6.45;;
16624;SDS011;8426;48.496;9.098;2022-08-19T22:07:22;7.50;;;6.07;;
16624;SDS011;8426;48.496;9.098;2022-08-19T22:12:28;10.80;;;7.13;;
16624;SDS011;8426;48.496;9.098;2022-08-19T22:17:33;11.48;;;6.47;;
16624;SDS011;8426;48.496;9.098;2022-08-19T22:22:36;9.48;;;5.85;;
16624;SDS011;8426;48.496;9.098;2022-08-19T22:27:47;9.73;;;6.50;;
16624;SDS011;8426;48.496;9.098;2022-08-19T22:32:58;10.88;;;6.30;;
16624;SDS011;8426;48.496;9.098;2022-08-19T22:38:03;10.95;;;6.90;;
16624;SDS011;8426;48.496;9.098;2022-08-19T22:43:14;6.50;;;5.03;;
16624;SDS011;8426;48.496;9.098;2022-08-19T22:48:19;6.60;;;5.28;;
16624;SDS011;8426;48.496;9.098;2022-08-19T22:53:25;7.85;;;5.22;;
16624;SDS011;8426;48.496;9.098;2022-08-19T22:58:30;6.72;;;4.68;;
16624;SDS011;8426;48.496;9.098;2022-08-19T23:03:33;7.90;;;4.00;;
16624;SDS011;8426;48.496;9.098;2022-08-19T23:08:36;5.68;;;4.00;;
16624;SDS011;8426;48.496;9.098;2022-08-19T23:13:41;8.73;;;4.13;;
16624;SDS011;8426;48.496;9.098;2022-08-19T23:18:45;5.68;;;3.47;;
16624;SDS011;8426;48.496;9.098;2022-08-19T23:23:54;4.07;;;3.03;;
16624;SDS011;8426;48.496;9.098;2022-08-19T23:28:59;4.22;;;2.85;;
16624;SDS011;8426;48.496;9.098;2022-08-19T23:34:20;4.03;;;2.95;;
16624;SDS011;8426;48.496;9.098;2022-08-19T23:39:23;3.40;;;2.60;;
16624;SDS011;8426;48.496;9.098;2022-08-19T23:44:31;4.55;;;3.05;;
16624;SDS011;8426;48.496;9.098;2022-08-19T23:49:52;9.43;;;4.80;;
16624;SDS011;8426;48.496;9.098;2022-08-19T23:54:58;6.43;;;4.30;;
